sensor_id;sensor_type;location;lat;lon;timestamp;temperature;humidity
15777;DHT22;7989;51.198;6.676;2022-09-03T00:00:03;19.90;90.70
15777;DHT22;7989;51.198;6.676;2022-09-03T00:02:37;19.80;90.90
15777;DHT22;7989;51.198;6.676;2022-09-03T00:05:08;19.80;90.90
15777;DHT22;7989;51.198;6.676;2022-09-03T00:07:43;19.70;91.30
15777;DHT22;7989;51.198;6.676;2022-09-03T00:10:17;19.70;90.90
15777;DHT22;7989;51.198;6.676;2022-09-03T00:12:46;19.70;91.20
15777;DHT22;7989;51.198;6.676;2022-09-03T00:15:17;19.70;91.10
15777;DHT22;7989;51.198;6.676;2022-09-03T00:17:48;19.70;91.40
15777;DHT22;7989;51.198;6.676;2022-09-03T00:20:20;19.60;91.40
15777;DHT22;7989;51.198;6.676;2022-09-03T00:22:49;19.60;91.60
15777;DHT22;7989;51.198;6.676;2022-09-03T00:25:20;19.50;91.70
15777;DHT22;7989;51.198;6.676;2022-09-03T00:27:52;19.50;91.60
15777;DHT22;7989;51.198;6.676;2022-09-03T00:30:21;19.50;92.00
15777;DHT22;7989;51.198;6.676;2022-09-03T00:32:53;19.50;92.00
15777;DHT22;7989;51.198;6.676;2022-09-03T00:35:26;19.50;92.00
15777;DHT22;7989;51.198;6.676;2022-09-03T00:37:54;19.50;92.00
15777;DHT22;7989;51.198;6.676;2022-09-03T00:40:34;19.50;92.00
15777;DHT22;7989;51.198;6.676;2022-09-03T00:43:09;19.40;92.20
15777;DHT22;7989;51.198;6.676;2022-09-03T00:45:45;19.40;92.40
15777;DHT22;7989;51.198;6.676;2022-09-03T00:48:19;19.40;92.50
15777;DHT22;7989;51.198;6.676;2022-09-03T00:51:00;19.30;92.50
15777;DHT22;7989;51.198;6.676;2022-09-03T00:53:34;19.30;92.60
15777;DHT22;7989;51.198;6.676;2022-09-03T00:56:07;19.30;92.70
15777;DHT22;7989;51.198;6.676;2022-09-03T00:58:50;19.20;92.60
15777;DHT22;7989;51.198;6.676;2022-09-03T01:01:29;19.20;92.80
15777;DHT22;7989;51.198;6.676;2022-09-03T01:04:07;19.20;93.00
15777;DHT22;7989;51.198;6.676;2022-09-03T01:06:54;19.10;92.90
15777;DHT22;7989;51.198;6.676;2022-09-03T01:09:38;19.10;93.10
15777;DHT22;7989;51.198;6.676;2022-09-03T01:12:12;19.00;93.40
15777;DHT22;7989;51.198;6.676;2022-09-03T01:14:51;19.00;93.60
15777;DHT22;7989;51.198;6.676;2022-09-03T01:17:32;19.00;93.60
15777;DHT22;7989;51.198;6.676;2022-09-03T01:20:12;19.00;93.70
15777;DHT22;7989;51.198;6.676;2022-09-03T01:23:25;18.90;93.70
15777;DHT22;7989;51.198;6.676;2022-09-03T01:26:02;18.90;93.80
15777;DHT22;7989;51.198;6.676;2022-09-03T01:28:47;19.00;94.10
15777;DHT22;7989;51.198;6.676;2022-09-03T01:31:27;18.90;94.00
15777;DHT22;7989;51.198;6.676;2022-09-03T01:34:03;18.90;94.30
15777;DHT22;7989;51.198;6.676;2022-09-03T01:36:39;18.90;94.50
15777;DHT22;7989;51.198;6.676;2022-09-03T01:39:15;18.90;94.80
15777;DHT22;7989;51.198;6.676;2022-09-03T01:41:51;18.90;94.40
15777;DHT22;7989;51.198;6.676;2022-09-03T01:44:49;18.80;94.60
15777;DHT22;7989;51.198;6.676;2022-09-03T01:47:25;18.80;94.50
15777;DHT22;7989;51.198;6.676;2022-09-03T01:50:03;18.80;94.60
15777;DHT22;7989;51.198;6.676;2022-09-03T01:52:41;18.80;95.00
15777;DHT22;7989;51.198;6.676;2022-09-03T01:55:18;18.80;94.90
15777;DHT22;7989;51.198;6.676;2022-09-03T01:57:53;18.70;95.20
15777;DHT22;7989;51.198;6.676;2022-09-03T02:00:24;18.70;95.10
15777;DHT22;7989;51.198;6.676;2022-09-03T02:02:52;18.70;95.20
15777;DHT22;7989;51.198;6.676;2022-09-03T02:05:21;18.60;95.10
15777;DHT22;7989;51.198;6.676;2022-09-03T02:07:53;18.70;95.30
15777;DHT22;7989;51.198;6.676;2022-09-03T02:10:23;18.70;95.40
15777;DHT22;7989;51.198;6.676;2022-09-03T02:12:55;18.60;95.50
15777;DHT22;7989;51.198;6.676;2022-09-03T02:15:25;18.60;95.60
15777;DHT22;7989;51.198;6.676;2022-09-03T02:17:54;18.60;95.80
15777;DHT22;7989;51.198;6.676;2022-09-03T02:20:25;18.60;95.70
15777;DHT22;7989;51.198;6.676;2022-09-03T02:22:53;18.60;95.90
15777;DHT22;7989;51.198;6.676;2022-09-03T02:25:24;18.50;95.90
15777;DHT22;7989;51.198;6.676;2022-09-03T02:27:52;18.50;96.10
15777;DHT22;7989;51.198;6.676;2022-09-03T02:30:19;18.40;96.20
15777;DHT22;7989;51.198;6.676;2022-09-03T02:32:47;18.40;96.00
15777;DHT22;7989;51.198;6.676;2022-09-03T02:35:14;18.40;96.30
15777;DHT22;7989;51.198;6.676;2022-09-03T02:37:40;18.40;96.30
15777;DHT22;7989;51.198;6.676;2022-09-03T02:40:08;18.50;96.30
15777;DHT22;7989;51.198;6.676;2022-09-03T02:42:35;18.40;96.40
15777;DHT22;7989;51.198;6.676;2022-09-03T02:45:09;18.40;96.50
15777;DHT22;7989;51.198;6.676;2022-09-03T02:47:40;18.40;96.60
15777;DHT22;7989;51.198;6.676;2022-09-03T02:50:10;18.30;96.80
15777;DHT22;7989;51.198;6.676;2022-09-03T02:52:36;18.40;96.50
15777;DHT22;7989;51.198;6.676;2022-09-03T02:55:04;18.40;96.80
15777;DHT22;7989;51.198;6.676;2022-09-03T02:57:31;18.40;96.70
15777;DHT22;7989;51.198;6.676;2022-09-03T02:59:58;18.30;96.70
15777;DHT22;7989;51.198;6.676;2022-09-03T03:02:24;18.30;97.10
15777;DHT22;7989;51.198;6.676;2022-09-03T03:04:51;18.30;97.10
15777;DHT22;7989;51.198;6.676;2022-09-03T03:07:21;18.20;97.20
15777;DHT22;7989;51.198;6.676;2022-09-03T03:09:47;18.20;97.10
15777;DHT22;7989;51.198;6.676;2022-09-03T03:12:14;18.20;97.30
15777;DHT22;7989;51.198;6.676;2022-09-03T03:14:42;18.20;97.50
15777;DHT22;7989;51.198;6.676;2022-09-03T03:17:09;18.20;97.40
15777;DHT22;7989;51.198;6.676;2022-09-03T03:19:35;18.20;97.70
15777;DHT22;7989;51.198;6.676;2022-09-03T03:22:02;18.10;97.70
15777;DHT22;7989;51.198;6.676;2022-09-03T03:24:30;18.10;97.70
15777;DHT22;7989;51.198;6.676;2022-09-03T03:26:57;18.10;97.80
15777;DHT22;7989;51.198;6.676;2022-09-03T03:29:24;18.00;97.90
15777;DHT22;7989;51.198;6.676;2022-09-03T03:31:52;18.00;97.80
15777;DHT22;7989;51.198;6.676;2022-09-03T03:34:19;18.10;98.00
15777;DHT22;7989;51.198;6.676;2022-09-03T03:36:46;18.10;98.20
15777;DHT22;7989;51.198;6.676;2022-09-03T03:39:12;18.00;98.10
15777;DHT22;7989;51.198;6.676;2022-09-03T03:41:41;18.00;98.20
15777;DHT22;7989;51.198;6.676;2022-09-03T03:44:07;18.00;98.20
15777;DHT22;7989;51.198;6.676;2022-09-03T03:46:36;18.00;98.20
15777;DHT22;7989;51.198;6.676;2022-09-03T03:49:04;18.00;98.50
15777;DHT22;7989;51.198;6.676;2022-09-03T03:51:31;18.00;98.50
15777;DHT22;7989;51.198;6.676;2022-09-03T03:53:58;18.00;98.50
15777;DHT22;7989;51.198;6.676;2022-09-03T03:56:25;18.00;98.60
15777;DHT22;7989;51.198;6.676;2022-09-03T03:58:54;17.90;98.80
15777;DHT22;7989;51.198;6.676;2022-09-03T04:01:22;17.90;98.90
15777;DHT22;7989;51.198;6.676;2022-09-03T04:03:49;17.80;99.00
15777;DHT22;7989;51.198;6.676;2022-09-03T04:06:18;17.80;99.20
15777;DHT22;7989;51.198;6.676;2022-09-03T04:08:47;17.80;99.20
15777;DHT22;7989;51.198;6.676;2022-09-03T04:11:16;17.80;99.40
15777;DHT22;7989;51.198;6.676;2022-09-03T04:13:45;17.80;99.30
15777;DHT22;7989;51.198;6.676;2022-09-03T04:16:15;17.80;99.60
15777;DHT22;7989;51.198;6.676;2022-09-03T04:18:42;17.80;99.60
15777;DHT22;7989;51.198;6.676;2022-09-03T04:21:11;17.70;99.90
15777;DHT22;7989;51.198;6.676;2022-09-03T04:23:40;17.70;99.80
15777;DHT22;7989;51.198;6.676;2022-09-03T04:26:08;17.70;99.90
15777;DHT22;7989;51.198;6.676;2022-09-03T04:28:35;17.70;99.90
15777;DHT22;7989;51.198;6.676;2022-09-03T04:31:03;17.70;99.90
15777;DHT22;7989;51.198;6.676;2022-09-03T04:33:32;17.70;99.90
15777;DHT22;7989;51.198;6.676;2022-09-03T04:36:05;17.70;99.90
15777;DHT22;7989;51.198;6.676;2022-09-03T04:38:32;17.70;99.90
15777;DHT22;7989;51.198;6.676;2022-09-03T04:41:00;17.70;99.90
15777;DHT22;7989;51.198;6.676;2022-09-03T04:43:27;17.70;99.90
15777;DHT22;7989;51.198;6.676;2022-09-03T04:45:58;17.70;99.90
15777;DHT22;7989;51.198;6.676;2022-09-03T04:48:25;17.70;99.90
15777;DHT22;7989;51.198;6.676;2022-09-03T04:50:54;17.60;99.90
15777;DHT22;7989;51.198;6.676;2022-09-03T04:53:21;17.60;99.90
15777;DHT22;7989;51.198;6.676;2022-09-03T04:55:48;17.60;99.90
15777;DHT22;7989;51.198;6.676;2022-09-03T04:58:15;17.60;99.90
15777;DHT22;7989;51.198;6.676;2022-09-03T05:00:42;17.60;99.90
15777;DHT22;7989;51.198;6.676;2022-09-03T05:03:11;17.60;99.90
15777;DHT22;7989;51.198;6.676;2022-09-03T05:05:38;17.60;99.90
15777;DHT22;7989;51.198;6.676;2022-09-03T05:08:07;17.60;99.90
15777;DHT22;7989;51.198;6.676;2022-09-03T05:10:33;17.60;99.90
15777;DHT22;7989;51.198;6.676;2022-09-03T05:13:02;17.60;99.90
15777;DHT22;7989;51.198;6.676;2022-09-03T05:15:29;17.60;99.90
15777;DHT22;7989;51.198;6.676;2022-09-03T05:17:58;17.60;99.90
15777;DHT22;7989;51.198;6.676;2022-09-03T05:20:25;17.60;99.90
15777;DHT22;7989;51.198;6.676;2022-09-03T05:22:54;17.70;99.90
15777;DHT22;7989;51.198;6.676;2022-09-03T05:25:23;17.70;99.90
15777;DHT22;7989;51.198;6.676;2022-09-03T05:27:50;17.70;99.90
15777;DHT22;7989;51.198;6.676;2022-09-03T05:30:19;17.70;99.90
15777;DHT22;7989;51.198;6.676;2022-09-03T05:32:48;17.70;99.90
15777;DHT22;7989;51.198;6.676;2022-09-03T05:35:15;17.60;99.90
15777;DHT22;7989;51.198;6.676;2022-09-03T05:37:41;17.70;99.90
15777;DHT22;7989;51.198;6.676;2022-09-03T05:40:08;17.70;99.90
15777;DHT22;7989;51.198;6.676;2022-09-03T05:42:37;17.70;99.90
15777;DHT22;7989;51.198;6.676;2022-09-03T05:45:06;17.70;99.90
15777;DHT22;7989;51.198;6.676;2022-09-03T05:47:35;17.70;99.90
15777;DHT22;7989;51.198;6.676;2022-09-03T05:50:04;17.70;99.90
15777;DHT22;7989;51.198;6.676;2022-09-03T05:52:32;17.80;99.90
15777;DHT22;7989;51.198;6.676;2022-09-03T05:54:58;17.90;99.90
15777;DHT22;7989;51.198;6.676;2022-09-03T05:57:25;17.90;99.90
15777;DHT22;7989;51.198;6.676;2022-09-03T05:59:55;18.00;99.90
15777;DHT22;7989;51.198;6.676;2022-09-03T06:02:22;18.00;99.90
15777;DHT22;7989;51.198;6.676;2022-09-03T06:04:49;18.10;99.90
15777;DHT22;7989;51.198;6.676;2022-09-03T06:07:15;18.20;99.90
15777;DHT22;7989;51.198;6.676;2022-09-03T06:09:42;18.30;99.90
15777;DHT22;7989;51.198;6.676;2022-09-03T06:12:09;19.70;99.90
15777;DHT22;7989;51.198;6.676;2022-09-03T06:14:36;19.90;99.90
15777;DHT22;7989;51.198;6.676;2022-09-03T06:17:04;19.50;99.90
15777;DHT22;7989;51.198;6.676;2022-09-03T06:19:31;19.60;99.90
15777;DHT22;7989;51.198;6.676;2022-09-03T06:21:58;20.80;99.60
15777;DHT22;7989;51.198;6.676;2022-09-03T06:24:24;20.90;98.60
15777;DHT22;7989;51.198;6.676;2022-09-03T06:26:54;20.00;99.10
15777;DHT22;7989;51.198;6.676;2022-09-03T06:29:21;19.90;99.90
15777;DHT22;7989;51.198;6.676;2022-09-03T06:31:47;22.40;98.80
15777;DHT22;7989;51.198;6.676;2022-09-03T06:34:16;23.20;95.50
15777;DHT22;7989;51.198;6.676;2022-09-03T06:36:43;23.30;95.10
15777;DHT22;7989;51.198;6.676;2022-09-03T06:39:10;22.80;95.30
15777;DHT22;7989;51.198;6.676;2022-09-03T06:41:37;24.70;94.60
15777;DHT22;7989;51.198;6.676;2022-09-03T06:44:05;27.60;91.80
15777;DHT22;7989;51.198;6.676;2022-09-03T06:46:37;29.20;88.60
15777;DHT22;7989;51.198;6.676;2022-09-03T06:49:06;30.40;83.80
15777;DHT22;7989;51.198;6.676;2022-09-03T06:51:36;30.60;81.70
15777;DHT22;7989;51.198;6.676;2022-09-03T06:54:05;30.50;79.50
15777;DHT22;7989;51.198;6.676;2022-09-03T06:56:33;29.40;79.50
15777;DHT22;7989;51.198;6.676;2022-09-03T06:59:04;28.10;82.10
15777;DHT22;7989;51.198;6.676;2022-09-03T07:01:32;27.40;82.50
15777;DHT22;7989;51.198;6.676;2022-09-03T07:04:00;26.20;84.30
15777;DHT22;7989;51.198;6.676;2022-09-03T07:06:28;24.20;87.70
15777;DHT22;7989;51.198;6.676;2022-09-03T07:08:57;22.70;90.80
15777;DHT22;7989;51.198;6.676;2022-09-03T07:11:26;22.10;91.70
15777;DHT22;7989;51.198;6.676;2022-09-03T07:13:56;21.10;93.00
15777;DHT22;7989;51.198;6.676;2022-09-03T07:16:25;20.70;94.40
15777;DHT22;7989;51.198;6.676;2022-09-03T07:18:53;20.70;95.10
15777;DHT22;7989;51.198;6.676;2022-09-03T07:21:22;21.40;95.10
15777;DHT22;7989;51.198;6.676;2022-09-03T07:23:50;22.00;94.10
15777;DHT22;7989;51.198;6.676;2022-09-03T07:26:20;21.30;94.10
15777;DHT22;7989;51.198;6.676;2022-09-03T07:28:47;21.10;94.70
15777;DHT22;7989;51.198;6.676;2022-09-03T07:31:16;20.70;95.20
15777;DHT22;7989;51.198;6.676;2022-09-03T07:33:44;20.60;95.90
15777;DHT22;7989;51.198;6.676;2022-09-03T07:36:12;20.50;96.20
15777;DHT22;7989;51.198;6.676;2022-09-03T07:38:40;20.60;96.50
15777;DHT22;7989;51.198;6.676;2022-09-03T07:41:09;20.60;96.70
15777;DHT22;7989;51.198;6.676;2022-09-03T07:43:39;20.70;96.80
15777;DHT22;7989;51.198;6.676;2022-09-03T07:46:07;21.00;96.60
15777;DHT22;7989;51.198;6.676;2022-09-03T07:48:37;21.60;95.90
15777;DHT22;7989;51.198;6.676;2022-09-03T07:51:05;21.60;95.90
15777;DHT22;7989;51.198;6.676;2022-09-03T07:53:32;22.30;95.90
15777;DHT22;7989;51.198;6.676;2022-09-03T07:56:03;22.40;94.80
15777;DHT22;7989;51.198;6.676;2022-09-03T07:58:31;22.20;94.50
15777;DHT22;7989;51.198;6.676;2022-09-03T08:01:04;21.90;94.60
15777;DHT22;7989;51.198;6.676;2022-09-03T08:03:32;21.70;95.00
15777;DHT22;7989;51.198;6.676;2022-09-03T08:06:00;22.00;95.10
15777;DHT22;7989;51.198;6.676;2022-09-03T08:08:28;22.00;94.80
15777;DHT22;7989;51.198;6.676;2022-09-03T08:10:55;21.90;95.60
15777;DHT22;7989;51.198;6.676;2022-09-03T08:13:23;21.60;95.50
15777;DHT22;7989;51.198;6.676;2022-09-03T08:15:53;21.60;95.40
15777;DHT22;7989;51.198;6.676;2022-09-03T08:18:22;21.50;95.80
15777;DHT22;7989;51.198;6.676;2022-09-03T08:20:49;21.30;96.10
15777;DHT22;7989;51.198;6.676;2022-09-03T08:23:15;21.30;96.40
15777;DHT22;7989;51.198;6.676;2022-09-03T08:25:42;21.50;96.30
15777;DHT22;7989;51.198;6.676;2022-09-03T08:28:09;21.70;96.30
15777;DHT22;7989;51.198;6.676;2022-09-03T08:30:36;22.10;96.50
15777;DHT22;7989;51.198;6.676;2022-09-03T08:33:03;22.20;95.60
15777;DHT22;7989;51.198;6.676;2022-09-03T08:35:32;22.40;96.20
15777;DHT22;7989;51.198;6.676;2022-09-03T08:38:00;22.70;96.10
15777;DHT22;7989;51.198;6.676;2022-09-03T08:40:30;23.00;95.20
15777;DHT22;7989;51.198;6.676;2022-09-03T08:43:06;23.50;94.70
15777;DHT22;7989;51.198;6.676;2022-09-03T08:45:36;23.60;94.20
15777;DHT22;7989;51.198;6.676;2022-09-03T08:48:06;23.20;94.80
15777;DHT22;7989;51.198;6.676;2022-09-03T08:50:39;23.20;95.00
15777;DHT22;7989;51.198;6.676;2022-09-03T08:53:11;23.00;94.80
15777;DHT22;7989;51.198;6.676;2022-09-03T08:55:44;23.10;94.90
15777;DHT22;7989;51.198;6.676;2022-09-03T08:58:15;22.90;95.10
15777;DHT22;7989;51.198;6.676;2022-09-03T09:00:48;22.70;95.60
15777;DHT22;7989;51.198;6.676;2022-09-03T09:03:35;22.70;95.90
15777;DHT22;7989;51.198;6.676;2022-09-03T09:06:15;23.30;95.10
15777;DHT22;7989;51.198;6.676;2022-09-03T09:08:50;23.60;95.00
15777;DHT22;7989;51.198;6.676;2022-09-03T09:11:32;25.20;93.60
15777;DHT22;7989;51.198;6.676;2022-09-03T09:14:04;25.30;93.10
15777;DHT22;7989;51.198;6.676;2022-09-03T09:16:38;24.50;94.20
15777;DHT22;7989;51.198;6.676;2022-09-03T09:19:16;24.90;94.80
15777;DHT22;7989;51.198;6.676;2022-09-03T09:21:51;25.10;94.30
15777;DHT22;7989;51.198;6.676;2022-09-03T09:24:22;24.10;95.80
15777;DHT22;7989;51.198;6.676;2022-09-03T09:26:55;23.80;96.30
15777;DHT22;7989;51.198;6.676;2022-09-03T09:29:25;24.10;96.80
15777;DHT22;7989;51.198;6.676;2022-09-03T09:31:53;24.70;95.90
15777;DHT22;7989;51.198;6.676;2022-09-03T09:34:20;25.00;95.50
15777;DHT22;7989;51.198;6.676;2022-09-03T09:36:51;24.80;94.60
15777;DHT22;7989;51.198;6.676;2022-09-03T09:39:18;24.90;94.70
15777;DHT22;7989;51.198;6.676;2022-09-03T09:41:56;24.50;94.80
15777;DHT22;7989;51.198;6.676;2022-09-03T09:44:25;24.50;95.70
15777;DHT22;7989;51.198;6.676;2022-09-03T09:47:01;25.30;95.20
15777;DHT22;7989;51.198;6.676;2022-09-03T09:49:33;24.60;95.70
15777;DHT22;7989;51.198;6.676;2022-09-03T09:52:05;23.90;97.00
15777;DHT22;7989;51.198;6.676;2022-09-03T09:54:33;24.10;97.60
15777;DHT22;7989;51.198;6.676;2022-09-03T09:57:02;25.20;95.90
15777;DHT22;7989;51.198;6.676;2022-09-03T09:59:29;24.90;95.70
15777;DHT22;7989;51.198;6.676;2022-09-03T10:02:10;24.40;96.20
15777;DHT22;7989;51.198;6.676;2022-09-03T10:04:38;24.10;97.20
15777;DHT22;7989;51.198;6.676;2022-09-03T10:07:21;23.90;97.20
15777;DHT22;7989;51.198;6.676;2022-09-03T10:09:58;23.90;97.40
15777;DHT22;7989;51.198;6.676;2022-09-03T10:12:30;24.10;97.30
15777;DHT22;7989;51.198;6.676;2022-09-03T10:15:09;24.30;96.80
15777;DHT22;7989;51.198;6.676;2022-09-03T10:17:43;24.00;97.00
15777;DHT22;7989;51.198;6.676;2022-09-03T10:20:15;23.80;97.80
15777;DHT22;7989;51.198;6.676;2022-09-03T10:23:00;23.50;98.10
15777;DHT22;7989;51.198;6.676;2022-09-03T10:25:33;23.50;98.30
15777;DHT22;7989;51.198;6.676;2022-09-03T10:28:03;23.70;98.60
15777;DHT22;7989;51.198;6.676;2022-09-03T10:30:39;23.80;98.50
15777;DHT22;7989;51.198;6.676;2022-09-03T10:33:15;24.00;98.00
15777;DHT22;7989;51.198;6.676;2022-09-03T10:35:48;24.20;98.00
15777;DHT22;7989;51.198;6.676;2022-09-03T10:38:24;24.30;98.20
15777;DHT22;7989;51.198;6.676;2022-09-03T10:41:00;24.50;97.30
15777;DHT22;7989;51.198;6.676;2022-09-03T10:43:44;24.50;97.80
15777;DHT22;7989;51.198;6.676;2022-09-03T10:46:21;24.40;97.50
15777;DHT22;7989;51.198;6.676;2022-09-03T10:51:38;24.40;98.00
15777;DHT22;7989;51.198;6.676;2022-09-03T10:54:24;24.20;98.10
15777;DHT22;7989;51.198;6.676;2022-09-03T10:57:04;24.20;98.40
15777;DHT22;7989;51.198;6.676;2022-09-03T10:59:50;24.40;98.50
15777;DHT22;7989;51.198;6.676;2022-09-03T11:02:38;24.60;98.40
15777;DHT22;7989;51.198;6.676;2022-09-03T11:05:09;24.60;98.40
15777;DHT22;7989;51.198;6.676;2022-09-03T11:07:43;24.80;98.40
15777;DHT22;7989;51.198;6.676;2022-09-03T11:10:16;24.70;97.80
15777;DHT22;7989;51.198;6.676;2022-09-03T11:12:45;24.70;98.20
15777;DHT22;7989;51.198;6.676;2022-09-03T11:15:19;24.70;98.40
15777;DHT22;7989;51.198;6.676;2022-09-03T11:17:53;24.60;98.60
15777;DHT22;7989;51.198;6.676;2022-09-03T11:20:23;24.40;98.90
15777;DHT22;7989;51.198;6.676;2022-09-03T11:22:53;24.30;99.10
15777;DHT22;7989;51.198;6.676;2022-09-03T11:25:26;24.40;99.30
15777;DHT22;7989;51.198;6.676;2022-09-03T11:28:07;24.60;99.00
15777;DHT22;7989;51.198;6.676;2022-09-03T11:30:45;24.60;99.30
15777;DHT22;7989;51.198;6.676;2022-09-03T11:33:18;24.60;99.50
15777;DHT22;7989;51.198;6.676;2022-09-03T11:35:45;24.60;99.40
15777;DHT22;7989;51.198;6.676;2022-09-03T11:38:20;24.60;99.40
15777;DHT22;7989;51.198;6.676;2022-09-03T11:41:02;24.40;99.50
15777;DHT22;7989;51.198;6.676;2022-09-03T11:43:31;24.20;99.60
15777;DHT22;7989;51.198;6.676;2022-09-03T11:46:08;24.20;99.90
15777;DHT22;7989;51.198;6.676;2022-09-03T11:48:39;24.80;99.90
15777;DHT22;7989;51.198;6.676;2022-09-03T11:51:28;25.00;99.20
15777;DHT22;7989;51.198;6.676;2022-09-03T11:53:58;25.20;98.70
15777;DHT22;7989;51.198;6.676;2022-09-03T11:56:27;25.20;98.70
15777;DHT22;7989;51.198;6.676;2022-09-03T11:59:16;24.80;98.90
15777;DHT22;7989;51.198;6.676;2022-09-03T12:01:46;24.80;99.10
15777;DHT22;7989;51.198;6.676;2022-09-03T12:04:18;24.90;99.20
15777;DHT22;7989;51.198;6.676;2022-09-03T12:06:56;25.10;99.30
15777;DHT22;7989;51.198;6.676;2022-09-03T12:09:46;25.60;99.10
15777;DHT22;7989;51.198;6.676;2022-09-03T12:12:37;25.90;98.60
15777;DHT22;7989;51.198;6.676;2022-09-03T12:15:13;25.70;98.20
15777;DHT22;7989;51.198;6.676;2022-09-03T12:17:51;25.80;98.80
15777;DHT22;7989;51.198;6.676;2022-09-03T12:20:39;25.70;99.20
15777;DHT22;7989;51.198;6.676;2022-09-03T12:23:06;26.00;98.50
15777;DHT22;7989;51.198;6.676;2022-09-03T12:25:33;25.80;98.80
15777;DHT22;7989;51.198;6.676;2022-09-03T12:28:11;25.80;99.00
15777;DHT22;7989;51.198;6.676;2022-09-03T12:30:38;25.80;99.30
15777;DHT22;7989;51.198;6.676;2022-09-03T12:33:05;26.10;99.90
15777;DHT22;7989;51.198;6.676;2022-09-03T12:35:35;26.90;99.90
15777;DHT22;7989;51.198;6.676;2022-09-03T12:38:02;26.60;98.90
15777;DHT22;7989;51.198;6.676;2022-09-03T12:40:30;26.40;98.80
15777;DHT22;7989;51.198;6.676;2022-09-03T12:43:12;26.30;99.60
15777;DHT22;7989;51.198;6.676;2022-09-03T12:45:42;27.10;99.20
15777;DHT22;7989;51.198;6.676;2022-09-03T12:48:12;27.30;98.70
15777;DHT22;7989;51.198;6.676;2022-09-03T12:50:41;27.00;98.80
15777;DHT22;7989;51.198;6.676;2022-09-03T12:53:10;26.70;99.70
15777;DHT22;7989;51.198;6.676;2022-09-03T12:55:42;27.00;99.10
15777;DHT22;7989;51.198;6.676;2022-09-03T12:58:17;27.20;99.30
15777;DHT22;7989;51.198;6.676;2022-09-03T13:00:48;27.30;99.40
15777;DHT22;7989;51.198;6.676;2022-09-03T13:03:20;27.50;99.50
15777;DHT22;7989;51.198;6.676;2022-09-03T13:05:52;27.60;99.90
15777;DHT22;7989;51.198;6.676;2022-09-03T13:08:22;27.70;99.70
15777;DHT22;7989;51.198;6.676;2022-09-03T13:10:51;28.00;99.10
15777;DHT22;7989;51.198;6.676;2022-09-03T13:13:23;28.40;98.10
15777;DHT22;7989;51.198;6.676;2022-09-03T13:16:09;28.50;98.30
15777;DHT22;7989;51.198;6.676;2022-09-03T13:18:45;29.10;98.00
15777;DHT22;7989;51.198;6.676;2022-09-03T13:21:17;29.60;98.00
15777;DHT22;7989;51.198;6.676;2022-09-03T13:24:07;29.70;97.70
15777;DHT22;7989;51.198;6.676;2022-09-03T13:26:44;29.70;97.00
15777;DHT22;7989;51.198;6.676;2022-09-03T13:29:27;30.00;97.10
15777;DHT22;7989;51.198;6.676;2022-09-03T13:31:59;30.00;96.50
15777;DHT22;7989;51.198;6.676;2022-09-03T13:34:31;29.80;96.90
15777;DHT22;7989;51.198;6.676;2022-09-03T13:37:10;29.40;97.10
15777;DHT22;7989;51.198;6.676;2022-09-03T13:39:42;28.90;97.80
15777;DHT22;7989;51.198;6.676;2022-09-03T13:42:16;28.80;97.90
15777;DHT22;7989;51.198;6.676;2022-09-03T13:44:47;28.80;97.90
15777;DHT22;7989;51.198;6.676;2022-09-03T13:47:25;28.50;98.10
15777;DHT22;7989;51.198;6.676;2022-09-03T13:49:57;28.70;97.60
15777;DHT22;7989;51.198;6.676;2022-09-03T13:52:48;28.50;98.30
15777;DHT22;7989;51.198;6.676;2022-09-03T13:55:22;28.70;97.70
15777;DHT22;7989;51.198;6.676;2022-09-03T13:57:54;28.90;97.50
15777;DHT22;7989;51.198;6.676;2022-09-03T14:00:27;29.30;97.10
15777;DHT22;7989;51.198;6.676;2022-09-03T14:03:03;29.30;97.30
15777;DHT22;7989;51.198;6.676;2022-09-03T14:05:46;29.20;96.40
15777;DHT22;7989;51.198;6.676;2022-09-03T14:08:22;28.80;96.80
15777;DHT22;7989;51.198;6.676;2022-09-03T14:10:58;28.30;97.20
15777;DHT22;7989;51.198;6.676;2022-09-03T14:13:40;28.30;97.30
15777;DHT22;7989;51.198;6.676;2022-09-03T14:16:28;28.30;97.30
15777;DHT22;7989;51.198;6.676;2022-09-03T14:18:58;28.40;97.30
15777;DHT22;7989;51.198;6.676;2022-09-03T14:21:29;28.50;97.10
15777;DHT22;7989;51.198;6.676;2022-09-03T14:24:04;28.50;96.50
15777;DHT22;7989;51.198;6.676;2022-09-03T14:26:34;28.60;96.60
15777;DHT22;7989;51.198;6.676;2022-09-03T14:29:03;28.30;96.70
15777;DHT22;7989;51.198;6.676;2022-09-03T14:34:37;28.40;96.60
15777;DHT22;7989;51.198;6.676;2022-09-03T14:37:16;28.40;96.70
15777;DHT22;7989;51.198;6.676;2022-09-03T14:39:53;28.60;96.50
15777;DHT22;7989;51.198;6.676;2022-09-03T14:42:39;28.40;95.60
15777;DHT22;7989;51.198;6.676;2022-09-03T14:45:28;27.80;96.20
15777;DHT22;7989;51.198;6.676;2022-09-03T14:48:11;27.50;96.70
15777;DHT22;7989;51.198;6.676;2022-09-03T14:50:51;27.60;96.40
15777;DHT22;7989;51.198;6.676;2022-09-03T14:53:37;27.50;96.50
15777;DHT22;7989;51.198;6.676;2022-09-03T14:56:21;27.50;96.10
15777;DHT22;7989;51.198;6.676;2022-09-03T14:59:04;27.60;96.10
15777;DHT22;7989;51.198;6.676;2022-09-03T15:01:35;27.70;96.20
15777;DHT22;7989;51.198;6.676;2022-09-03T15:04:42;27.90;96.50
15777;DHT22;7989;51.198;6.676;2022-09-03T15:07:26;27.90;96.40
15777;DHT22;7989;51.198;6.676;2022-09-03T15:10:02;27.80;96.40
15777;DHT22;7989;51.198;6.676;2022-09-03T15:12:36;27.50;96.20
15777;DHT22;7989;51.198;6.676;2022-09-03T15:15:09;27.40;97.10
15777;DHT22;7989;51.198;6.676;2022-09-03T15:17:45;27.40;96.90
15777;DHT22;7989;51.198;6.676;2022-09-03T15:20:21;27.50;96.90
15777;DHT22;7989;51.198;6.676;2022-09-03T15:23:05;27.40;96.70
15777;DHT22;7989;51.198;6.676;2022-09-03T15:28:29;26.70;97.50
15777;DHT22;7989;51.198;6.676;2022-09-03T15:31:08;26.50;97.60
15777;DHT22;7989;51.198;6.676;2022-09-03T15:33:42;26.40;97.90
15777;DHT22;7989;51.198;6.676;2022-09-03T15:36:17;26.40;98.30
15777;DHT22;7989;51.198;6.676;2022-09-03T15:38:51;26.40;98.50
15777;DHT22;7989;51.198;6.676;2022-09-03T15:41:29;26.30;98.00
15777;DHT22;7989;51.198;6.676;2022-09-03T15:44:00;26.30;98.30
15777;DHT22;7989;51.198;6.676;2022-09-03T15:46:50;26.30;98.30
15777;DHT22;7989;51.198;6.676;2022-09-03T15:49:26;26.50;98.70
15777;DHT22;7989;51.198;6.676;2022-09-03T15:52:07;26.70;98.60
15777;DHT22;7989;51.198;6.676;2022-09-03T15:54:42;26.60;98.00
15777;DHT22;7989;51.198;6.676;2022-09-03T15:57:17;26.60;98.90
15777;DHT22;7989;51.198;6.676;2022-09-03T15:59:50;26.70;99.10
15777;DHT22;7989;51.198;6.676;2022-09-03T16:02:25;26.70;98.80
15777;DHT22;7989;51.198;6.676;2022-09-03T16:05:04;26.70;99.30
15777;DHT22;7989;51.198;6.676;2022-09-03T16:08:01;26.50;99.20
15777;DHT22;7989;51.198;6.676;2022-09-03T16:10:41;26.40;99.50
15777;DHT22;7989;51.198;6.676;2022-09-03T16:13:28;26.40;99.90
15777;DHT22;7989;51.198;6.676;2022-09-03T16:16:01;26.50;99.80
15777;DHT22;7989;51.198;6.676;2022-09-03T16:18:32;26.50;99.90
15777;DHT22;7989;51.198;6.676;2022-09-03T16:21:03;26.60;99.60
15777;DHT22;7989;51.198;6.676;2022-09-03T16:23:38;26.40;99.80
15777;DHT22;7989;51.198;6.676;2022-09-03T16:26:12;26.40;99.90